KART/ART METAR and TAF weather

Enter ICAO airport designator
Station Type Date Time Source
KART METAR 2021/09/27 05:56 UTC NOAA

KART 270556Z AUTO 17004KT 10SM BKN100 13/10 A2984 RMK AO2 SLP103 T01330100 10167 20106 58006


Station Type Date Time Source
KART Decoded METAR 2021/09/27 05:56 UTC NOAA

WATERTOWN INTERNATIONAL AIRPORT, NY, United States (KART) 43-59N 076-02W 100M
Sep 27, 2021 - 01:56 AM EDT / 2021.09.27 0556 UTC
Wind: from the S (170 degrees) at 5 MPH (4 KT):0
Visibility: 10 mile(s):0
Sky conditions: mostly cloudy
Temperature: 55.9 F (13.3 C)
Dew Point: 50.0 F (10.0 C)
Relative Humidity: 80%
Pressure (altimeter): 29.84 in. Hg (1010 hPa)
Pressure tendency: 0.02 inches (0.6 hPa) lower than three hours ago
ob: KART 270556Z AUTO 17004KT 10SM BKN100 13/10 A2984 RMK AO2 SLP103 T01330100 10167 20106 58006
cycle: 6

Station Type Date Time Source
KART TAF 2021/09/27 06:39 UTC NOAA

TAF KART 270536Z 2706/2806 20005KT P6SM VCSH BKN080
FM271000 21012KT 6SM -SHRA OVC015
TEMPO 2711/2714 OVC007
FM271500 23016G24KT P6SM BKN040
FM272100 25012KT P6SM VCSH OVC025

Example: see airport list